sensor_id;sensor_type;location;lat;lon;timestamp;P1;durP1;ratioP1;P2;durP2;ratioP2
9522;SDS011;63165;43.016;25.784;2023-08-01T00:00:15;40.63;;;15.68;;
9522;SDS011;63165;43.016;25.784;2023-08-01T00:02:42;35.58;;;15.32;;
9522;SDS011;63165;43.016;25.784;2023-08-01T00:05:10;36.47;;;14.43;;
9522;SDS011;63165;43.016;25.784;2023-08-01T00:07:37;38.60;;;15.63;;
9522;SDS011;63165;43.016;25.784;2023-08-01T00:10:04;34.90;;;14.77;;
9522;SDS011;63165;43.016;25.784;2023-08-01T00:12:32;36.63;;;15.57;;
9522;SDS011;63165;43.016;25.784;2023-08-01T00:15:01;39.30;;;15.00;;
9522;SDS011;63165;43.016;25.784;2023-08-01T00:17:28;41.60;;;14.80;;
9522;SDS011;63165;43.016;25.784;2023-08-01T00:19:55;46.28;;;15.75;;
9522;SDS011;63165;43.016;25.784;2023-08-01T00:22:23;52.58;;;19.30;;
9522;SDS011;63165;43.016;25.784;2023-08-01T00:24:50;175.02;;;44.88;;
9522;SDS011;63165;43.016;25.784;2023-08-01T00:27:17;166.23;;;45.10;;
9522;SDS011;63165;43.016;25.784;2023-08-01T00:29:44;147.10;;;40.05;;
9522;SDS011;63165;43.016;25.784;2023-08-01T00:32:13;152.07;;;41.83;;
9522;SDS011;63165;43.016;25.784;2023-08-01T00:34:40;123.63;;;36.15;;
9522;SDS011;63165;43.016;25.784;2023-08-01T00:37:07;105.82;;;31.15;;
9522;SDS011;63165;43.016;25.784;2023-08-01T00:39:35;123.68;;;34.65;;
9522;SDS011;63165;43.016;25.784;2023-08-01T00:42:02;105.05;;;30.30;;
9522;SDS011;63165;43.016;25.784;2023-08-01T00:44:29;106.15;;;31.73;;
9522;SDS011;63165;43.016;25.784;2023-08-01T00:46:57;77.28;;;24.90;;
9522;SDS011;63165;43.016;25.784;2023-08-01T00:49:26;53.47;;;18.55;;
9522;SDS011;63165;43.016;25.784;2023-08-01T00:51:53;42.38;;;16.13;;
9522;SDS011;63165;43.016;25.784;2023-08-01T00:54:21;44.63;;;16.38;;
9522;SDS011;63165;43.016;25.784;2023-08-01T00:56:48;39.90;;;15.98;;
9522;SDS011;63165;43.016;25.784;2023-08-01T00:59:16;43.08;;;16.73;;
9522;SDS011;63165;43.016;25.784;2023-08-01T01:01:43;40.42;;;16.10;;
9522;SDS011;63165;43.016;25.784;2023-08-01T01:04:10;42.75;;;14.95;;
9522;SDS011;63165;43.016;25.784;2023-08-01T01:06:41;40.55;;;15.85;;
9522;SDS011;63165;43.016;25.784;2023-08-01T01:11:42;42.67;;;14.98;;
9522;SDS011;63165;43.016;25.784;2023-08-01T01:14:10;36.65;;;15.10;;
9522;SDS011;63165;43.016;25.784;2023-08-01T01:16:37;35.95;;;14.63;;
9522;SDS011;63165;43.016;25.784;2023-08-01T01:19:06;38.47;;;14.23;;
9522;SDS011;63165;43.016;25.784;2023-08-01T01:21:37;37.63;;;15.38;;
9522;SDS011;63165;43.016;25.784;2023-08-01T01:24:07;44.67;;;15.48;;
9522;SDS011;63165;43.016;25.784;2023-08-01T01:26:36;53.70;;;18.85;;
9522;SDS011;63165;43.016;25.784;2023-08-01T01:29:04;37.17;;;15.70;;
9522;SDS011;63165;43.016;25.784;2023-08-01T01:31:33;38.80;;;14.75;;
9522;SDS011;63165;43.016;25.784;2023-08-01T01:34:05;38.58;;;14.77;;
9522;SDS011;63165;43.016;25.784;2023-08-01T01:36:35;42.15;;;15.32;;
9522;SDS011;63165;43.016;25.784;2023-08-01T01:39:03;38.28;;;14.05;;
9522;SDS011;63165;43.016;25.784;2023-08-01T01:41:30;35.55;;;15.15;;
9522;SDS011;63165;43.016;25.784;2023-08-01T01:43:57;35.67;;;14.00;;
9522;SDS011;63165;43.016;25.784;2023-08-01T01:46:25;38.92;;;14.80;;
9522;SDS011;63165;43.016;25.784;2023-08-01T01:48:52;38.63;;;15.43;;
9522;SDS011;63165;43.016;25.784;2023-08-01T01:51:20;38.38;;;15.02;;
9522;SDS011;63165;43.016;25.784;2023-08-01T01:53:50;37.28;;;14.50;;
9522;SDS011;63165;43.016;25.784;2023-08-01T01:56:17;37.78;;;14.45;;
9522;SDS011;63165;43.016;25.784;2023-08-01T01:58:44;32.55;;;13.45;;
9522;SDS011;63165;43.016;25.784;2023-08-01T02:01:12;34.15;;;13.40;;
9522;SDS011;63165;43.016;25.784;2023-08-01T02:03:39;91.80;;;29.00;;
9522;SDS011;63165;43.016;25.784;2023-08-01T02:06:06;94.45;;;32.13;;
9522;SDS011;63165;43.016;25.784;2023-08-01T02:08:34;86.30;;;29.92;;
9522;SDS011;63165;43.016;25.784;2023-08-01T02:11:03;68.55;;;23.80;;
9522;SDS011;63165;43.016;25.784;2023-08-01T02:13:31;47.20;;;18.65;;
9522;SDS011;63165;43.016;25.784;2023-08-01T02:15:59;44.22;;;16.45;;
9522;SDS011;63165;43.016;25.784;2023-08-01T02:18:26;37.17;;;14.23;;
9522;SDS011;63165;43.016;25.784;2023-08-01T02:20:53;40.85;;;15.75;;
9522;SDS011;63165;43.016;25.784;2023-08-01T02:23:21;39.10;;;14.07;;
9522;SDS011;63165;43.016;25.784;2023-08-01T02:25:48;42.60;;;15.20;;
9522;SDS011;63165;43.016;25.784;2023-08-01T02:28:18;38.47;;;14.00;;
9522;SDS011;63165;43.016;25.784;2023-08-01T02:30:45;56.95;;;19.38;;
9522;SDS011;63165;43.016;25.784;2023-08-01T02:33:15;52.10;;;20.65;;
9522;SDS011;63165;43.016;25.784;2023-08-01T02:35:43;88.45;;;30.05;;
9522;SDS011;63165;43.016;25.784;2023-08-01T02:38:10;77.82;;;25.02;;
9522;SDS011;63165;43.016;25.784;2023-08-01T02:40:37;61.08;;;21.75;;
9522;SDS011;63165;43.016;25.784;2023-08-01T02:43:05;84.93;;;29.27;;
9522;SDS011;63165;43.016;25.784;2023-08-01T02:45:34;74.55;;;25.33;;
9522;SDS011;63165;43.016;25.784;2023-08-01T02:48:01;62.53;;;21.48;;
9522;SDS011;63165;43.016;25.784;2023-08-01T02:50:28;52.20;;;17.90;;
9522;SDS011;63165;43.016;25.784;2023-08-01T02:52:55;45.20;;;16.92;;
9522;SDS011;63165;43.016;25.784;2023-08-01T02:55:23;40.17;;;15.45;;
9522;SDS011;63165;43.016;25.784;2023-08-01T02:57:50;36.88;;;14.43;;
9522;SDS011;63165;43.016;25.784;2023-08-01T03:00:17;43.55;;;16.98;;
9522;SDS011;63165;43.016;25.784;2023-08-01T03:02:46;39.22;;;15.07;;
9522;SDS011;63165;43.016;25.784;2023-08-01T03:05:13;37.92;;;14.68;;
9522;SDS011;63165;43.016;25.784;2023-08-01T03:07:41;39.58;;;15.02;;
9522;SDS011;63165;43.016;25.784;2023-08-01T03:10:08;36.47;;;14.45;;
9522;SDS011;63165;43.016;25.784;2023-08-01T03:12:36;36.05;;;14.80;;
9522;SDS011;63165;43.016;25.784;2023-08-01T03:15:04;35.47;;;14.00;;
9522;SDS011;63165;43.016;25.784;2023-08-01T03:17:33;35.20;;;13.98;;
9522;SDS011;63165;43.016;25.784;2023-08-01T03:20:02;35.78;;;14.68;;
9522;SDS011;63165;43.016;25.784;2023-08-01T03:22:31;37.08;;;14.45;;
9522;SDS011;63165;43.016;25.784;2023-08-01T03:24:58;31.92;;;13.00;;
9522;SDS011;63165;43.016;25.784;2023-08-01T03:27:26;36.08;;;14.57;;
9522;SDS011;63165;43.016;25.784;2023-08-01T03:29:53;32.53;;;14.00;;
9522;SDS011;63165;43.016;25.784;2023-08-01T03:32:20;40.10;;;14.38;;
9522;SDS011;63165;43.016;25.784;2023-08-01T03:34:48;34.60;;;13.23;;
9522;SDS011;63165;43.016;25.784;2023-08-01T03:37:17;32.63;;;13.27;;
9522;SDS011;63165;43.016;25.784;2023-08-01T03:39:44;35.58;;;13.25;;
9522;SDS011;63165;43.016;25.784;2023-08-01T03:42:12;36.20;;;13.68;;
9522;SDS011;63165;43.016;25.784;2023-08-01T03:44:39;34.33;;;12.63;;
9522;SDS011;63165;43.016;25.784;2023-08-01T03:47:06;35.22;;;13.90;;
9522;SDS011;63165;43.016;25.784;2023-08-01T03:49:34;51.08;;;19.35;;
9522;SDS011;63165;43.016;25.784;2023-08-01T03:52:01;67.47;;;25.70;;
9522;SDS011;63165;43.016;25.784;2023-08-01T03:54:31;53.08;;;20.40;;
9522;SDS011;63165;43.016;25.784;2023-08-01T03:56:58;95.10;;;32.28;;
9522;SDS011;63165;43.016;25.784;2023-08-01T03:59:26;102.82;;;38.03;;
9522;SDS011;63165;43.016;25.784;2023-08-01T04:01:53;71.03;;;27.85;;
9522;SDS011;63165;43.016;25.784;2023-08-01T04:04:20;38.10;;;14.80;;
9522;SDS011;63165;43.016;25.784;2023-08-01T04:06:48;42.03;;;14.90;;
9522;SDS011;63165;43.016;25.784;2023-08-01T04:09:15;37.13;;;14.13;;
9522;SDS011;63165;43.016;25.784;2023-08-01T04:11:44;38.78;;;14.60;;
9522;SDS011;63165;43.016;25.784;2023-08-01T04:14:11;31.63;;;13.60;;
9522;SDS011;63165;43.016;25.784;2023-08-01T04:16:38;32.28;;;13.32;;
9522;SDS011;63165;43.016;25.784;2023-08-01T04:19:06;32.72;;;13.82;;
9522;SDS011;63165;43.016;25.784;2023-08-01T04:21:33;32.15;;;13.02;;
9522;SDS011;63165;43.016;25.784;2023-08-01T04:24:01;32.65;;;12.57;;
9522;SDS011;63165;43.016;25.784;2023-08-01T04:26:28;30.95;;;12.30;;
9522;SDS011;63165;43.016;25.784;2023-08-01T04:28:56;32.00;;;12.82;;
9522;SDS011;63165;43.016;25.784;2023-08-01T04:31:24;37.08;;;13.07;;
9522;SDS011;63165;43.016;25.784;2023-08-01T04:33:51;32.17;;;12.88;;
9522;SDS011;63165;43.016;25.784;2023-08-01T04:36:18;30.90;;;11.90;;
9522;SDS011;63165;43.016;25.784;2023-08-01T04:38:46;24.75;;;10.32;;
9522;SDS011;63165;43.016;25.784;2023-08-01T04:41:13;23.98;;;9.77;;
9522;SDS011;63165;43.016;25.784;2023-08-01T04:43:40;22.20;;;9.55;;
9522;SDS011;63165;43.016;25.784;2023-08-01T04:46:09;22.50;;;9.32;;
9522;SDS011;63165;43.016;25.784;2023-08-01T04:48:36;22.58;;;8.77;;
9522;SDS011;63165;43.016;25.784;2023-08-01T04:51:04;22.52;;;9.13;;
9522;SDS011;63165;43.016;25.784;2023-08-01T04:53:31;20.58;;;8.18;;
9522;SDS011;63165;43.016;25.784;2023-08-01T04:55:58;20.08;;;8.80;;
9522;SDS011;63165;43.016;25.784;2023-08-01T04:58:26;19.17;;;8.55;;
9522;SDS011;63165;43.016;25.784;2023-08-01T05:00:53;19.30;;;8.60;;
9522;SDS011;63165;43.016;25.784;2023-08-01T05:03:21;20.05;;;8.57;;
9522;SDS011;63165;43.016;25.784;2023-08-01T05:05:49;22.20;;;9.10;;
9522;SDS011;63165;43.016;25.784;2023-08-01T05:08:16;23.95;;;9.82;;
9522;SDS011;63165;43.016;25.784;2023-08-01T05:10:43;23.10;;;9.50;;
9522;SDS011;63165;43.016;25.784;2023-08-01T05:13:11;21.15;;;8.30;;
9522;SDS011;63165;43.016;25.784;2023-08-01T05:15:38;19.70;;;8.65;;
9522;SDS011;63165;43.016;25.784;2023-08-01T05:18:05;22.73;;;8.57;;
9522;SDS011;63165;43.016;25.784;2023-08-01T05:20:34;17.98;;;8.23;;
9522;SDS011;63165;43.016;25.784;2023-08-01T05:23:02;19.92;;;7.70;;
9522;SDS011;63165;43.016;25.784;2023-08-01T05:25:29;87.78;;;11.38;;
9522;SDS011;63165;43.016;25.784;2023-08-01T05:27:56;16.45;;;7.45;;
9522;SDS011;63165;43.016;25.784;2023-08-01T05:30:24;20.50;;;7.65;;
9522;SDS011;63165;43.016;25.784;2023-08-01T05:32:51;19.98;;;8.77;;
9522;SDS011;63165;43.016;25.784;2023-08-01T05:35:19;22.55;;;8.95;;
9522;SDS011;63165;43.016;25.784;2023-08-01T05:37:48;18.85;;;8.50;;
9522;SDS011;63165;43.016;25.784;2023-08-01T05:40:15;21.77;;;8.40;;
9522;SDS011;63165;43.016;25.784;2023-08-01T05:42:42;17.88;;;7.65;;
9522;SDS011;63165;43.016;25.784;2023-08-01T05:45:10;26.63;;;8.55;;
9522;SDS011;63165;43.016;25.784;2023-08-01T05:47:37;20.63;;;8.18;;
9522;SDS011;63165;43.016;25.784;2023-08-01T05:50:05;16.95;;;7.75;;
9522;SDS011;63165;43.016;25.784;2023-08-01T05:52:33;23.83;;;8.32;;
9522;SDS011;63165;43.016;25.784;2023-08-01T05:55:02;18.58;;;7.90;;
9522;SDS011;63165;43.016;25.784;2023-08-01T05:57:30;37.97;;;9.75;;
9522;SDS011;63165;43.016;25.784;2023-08-01T05:59:57;22.00;;;8.65;;
9522;SDS011;63165;43.016;25.784;2023-08-01T06:02:24;17.80;;;7.70;;
9522;SDS011;63165;43.016;25.784;2023-08-01T06:04:52;19.77;;;8.13;;
9522;SDS011;63165;43.016;25.784;2023-08-01T06:07:19;17.08;;;7.80;;
9522;SDS011;63165;43.016;25.784;2023-08-01T06:09:48;20.30;;;7.93;;
9522;SDS011;63165;43.016;25.784;2023-08-01T06:12:18;31.05;;;9.32;;
9522;SDS011;63165;43.016;25.784;2023-08-01T06:14:46;19.88;;;7.95;;
9522;SDS011;63165;43.016;25.784;2023-08-01T06:17:14;16.88;;;6.93;;
9522;SDS011;63165;43.016;25.784;2023-08-01T06:19:41;15.95;;;6.72;;
9522;SDS011;63165;43.016;25.784;2023-08-01T06:22:09;15.50;;;7.35;;
9522;SDS011;63165;43.016;25.784;2023-08-01T06:24:36;12.25;;;5.90;;
9522;SDS011;63165;43.016;25.784;2023-08-01T06:27:04;13.90;;;6.05;;
9522;SDS011;63165;43.016;25.784;2023-08-01T06:29:33;15.02;;;5.88;;
9522;SDS011;63165;43.016;25.784;2023-08-01T06:32:02;13.27;;;5.65;;
9522;SDS011;63165;43.016;25.784;2023-08-01T06:34:30;12.18;;;5.38;;
9522;SDS011;63165;43.016;25.784;2023-08-01T06:36:57;10.25;;;4.75;;
9522;SDS011;63165;43.016;25.784;2023-08-01T06:39:24;10.95;;;4.38;;
9522;SDS011;63165;43.016;25.784;2023-08-01T06:41:51;8.65;;;4.45;;
9522;SDS011;63165;43.016;25.784;2023-08-01T06:44:19;13.77;;;4.28;;
9522;SDS011;63165;43.016;25.784;2023-08-01T06:46:47;10.07;;;4.47;;
9522;SDS011;63165;43.016;25.784;2023-08-01T06:49:15;12.45;;;4.85;;
9522;SDS011;63165;43.016;25.784;2023-08-01T06:51:42;10.68;;;4.65;;
9522;SDS011;63165;43.016;25.784;2023-08-01T06:54:09;9.90;;;3.90;;
9522;SDS011;63165;43.016;25.784;2023-08-01T06:56:37;9.85;;;3.90;;
9522;SDS011;63165;43.016;25.784;2023-08-01T06:59:04;5.90;;;3.30;;
9522;SDS011;63165;43.016;25.784;2023-08-01T07:01:32;12.82;;;3.67;;
9522;SDS011;63165;43.016;25.784;2023-08-01T07:04:01;10.18;;;3.67;;
9522;SDS011;63165;43.016;25.784;2023-08-01T07:06:29;13.23;;;4.22;;
9522;SDS011;63165;43.016;25.784;2023-08-01T07:08:56;11.65;;;3.10;;
9522;SDS011;63165;43.016;25.784;2023-08-01T07:11:23;5.57;;;3.05;;
9522;SDS011;63165;43.016;25.784;2023-08-01T07:13:51;10.95;;;3.35;;
9522;SDS011;63165;43.016;25.784;2023-08-01T07:16:18;8.80;;;3.00;;
9522;SDS011;63165;43.016;25.784;2023-08-01T07:18:45;6.68;;;3.08;;
9522;SDS011;63165;43.016;25.784;2023-08-01T07:21:14;10.27;;;2.90;;
9522;SDS011;63165;43.016;25.784;2023-08-01T07:23:42;8.15;;;2.58;;
9522;SDS011;63165;43.016;25.784;2023-08-01T07:26:10;5.70;;;2.53;;
9522;SDS011;63165;43.016;25.784;2023-08-01T07:28:37;5.40;;;2.42;;
9522;SDS011;63165;43.016;25.784;2023-08-01T07:31:05;9.00;;;2.80;;
9522;SDS011;63165;43.016;25.784;2023-08-01T07:33:33;7.50;;;2.35;;
9522;SDS011;63165;43.016;25.784;2023-08-01T07:36:01;7.05;;;2.58;;
9522;SDS011;63165;43.016;25.784;2023-08-01T07:38:30;5.07;;;2.50;;
9522;SDS011;63165;43.016;25.784;2023-08-01T07:41:01;17.35;;;3.13;;
9522;SDS011;63165;43.016;25.784;2023-08-01T07:43:29;10.32;;;2.72;;
9522;SDS011;63165;43.016;25.784;2023-08-01T07:45:57;7.15;;;2.50;;
9522;SDS011;63165;43.016;25.784;2023-08-01T07:48:24;7.88;;;2.60;;
9522;SDS011;63165;43.016;25.784;2023-08-01T07:50:52;8.55;;;2.70;;
9522;SDS011;63165;43.016;25.784;2023-08-01T07:53:19;7.22;;;2.53;;
9522;SDS011;63165;43.016;25.784;2023-08-01T07:55:48;8.23;;;3.03;;
9522;SDS011;63165;43.016;25.784;2023-08-01T07:58:16;6.82;;;2.42;;
9522;SDS011;63165;43.016;25.784;2023-08-01T08:00:43;10.15;;;2.53;;
9522;SDS011;63165;43.016;25.784;2023-08-01T08:03:10;7.63;;;2.40;;
9522;SDS011;63165;43.016;25.784;2023-08-01T08:05:37;7.68;;;2.45;;
9522;SDS011;63165;43.016;25.784;2023-08-01T08:08:05;13.80;;;2.90;;
9522;SDS011;63165;43.016;25.784;2023-08-01T08:10:33;10.20;;;2.80;;
9522;SDS011;63165;43.016;25.784;2023-08-01T08:13:01;7.38;;;2.28;;
9522;SDS011;63165;43.016;25.784;2023-08-01T08:15:29;6.38;;;2.15;;
9522;SDS011;63165;43.016;25.784;2023-08-01T08:17:59;6.00;;;2.30;;
9522;SDS011;63165;43.016;25.784;2023-08-01T08:20:26;4.85;;;2.50;;
9522;SDS011;63165;43.016;25.784;2023-08-01T08:22:53;6.65;;;2.22;;
9522;SDS011;63165;43.016;25.784;2023-08-01T08:25:21;10.63;;;2.38;;
9522;SDS011;63165;43.016;25.784;2023-08-01T08:27:48;12.82;;;2.70;;
9522;SDS011;63165;43.016;25.784;2023-08-01T08:30:17;12.07;;;2.75;;
9522;SDS011;63165;43.016;25.784;2023-08-01T08:32:44;6.20;;;2.55;;
9522;SDS011;63165;43.016;25.784;2023-08-01T08:35:12;10.80;;;2.83;;
9522;SDS011;63165;43.016;25.784;2023-08-01T08:37:39;9.02;;;2.58;;
9522;SDS011;63165;43.016;25.784;2023-08-01T08:40:07;8.70;;;2.72;;
9522;SDS011;63165;43.016;25.784;2023-08-01T08:42:35;5.50;;;2.78;;
9522;SDS011;63165;43.016;25.784;2023-08-01T08:45:02;7.10;;;2.83;;
9522;SDS011;63165;43.016;25.784;2023-08-01T08:47:35;5.78;;;2.50;;
9522;SDS011;63165;43.016;25.784;2023-08-01T08:50:05;7.20;;;2.67;;
9522;SDS011;63165;43.016;25.784;2023-08-01T08:52:33;9.15;;;2.70;;
9522;SDS011;63165;43.016;25.784;2023-08-01T08:55:00;7.05;;;2.42;;
9522;SDS011;63165;43.016;25.784;2023-08-01T08:57:29;5.03;;;2.17;;
9522;SDS011;63165;43.016;25.784;2023-08-01T08:59:57;12.55;;;2.42;;
9522;SDS011;63165;43.016;25.784;2023-08-01T09:02:26;6.45;;;2.30;;
9522;SDS011;63165;43.016;25.784;2023-08-01T09:04:56;7.68;;;2.10;;
9522;SDS011;63165;43.016;25.784;2023-08-01T09:07:24;7.97;;;2.22;;
9522;SDS011;63165;43.016;25.784;2023-08-01T09:09:56;10.00;;;2.42;;
9522;SDS011;63165;43.016;25.784;2023-08-01T09:12:23;5.07;;;2.67;;
9522;SDS011;63165;43.016;25.784;2023-08-01T09:14:51;10.23;;;2.25;;
9522;SDS011;63165;43.016;25.784;2023-08-01T09:17:23;5.15;;;2.40;;
9522;SDS011;63165;43.016;25.784;2023-08-01T09:19:57;3.50;;;1.90;;
9522;SDS011;63165;43.016;25.784;2023-08-01T09:22:30;5.82;;;2.10;;
9522;SDS011;63165;43.016;25.784;2023-08-01T09:25:09;7.05;;;2.33;;
9522;SDS011;63165;43.016;25.784;2023-08-01T09:27:36;5.47;;;2.33;;
9522;SDS011;63165;43.016;25.784;2023-08-01T09:30:10;4.90;;;2.20;;
9522;SDS011;63165;43.016;25.784;2023-08-01T09:32:50;6.72;;;2.28;;
9522;SDS011;63165;43.016;25.784;2023-08-01T09:35:19;5.03;;;2.30;;
9522;SDS011;63165;43.016;25.784;2023-08-01T09:37:47;5.47;;;2.55;;
9522;SDS011;63165;43.016;25.784;2023-08-01T09:40:15;6.88;;;2.28;;
9522;SDS011;63165;43.016;25.784;2023-08-01T09:42:42;9.85;;;2.78;;
9522;SDS011;63165;43.016;25.784;2023-08-01T09:45:11;7.35;;;2.65;;
9522;SDS011;63165;43.016;25.784;2023-08-01T09:47:40;8.65;;;2.50;;
9522;SDS011;63165;43.016;25.784;2023-08-01T09:50:09;7.68;;;2.47;;
9522;SDS011;63165;43.016;25.784;2023-08-01T09:52:39;6.35;;;2.40;;
9522;SDS011;63165;43.016;25.784;2023-08-01T09:55:07;4.78;;;2.33;;
9522;SDS011;63165;43.016;25.784;2023-08-01T09:57:36;5.65;;;2.30;;
9522;SDS011;63165;43.016;25.784;2023-08-01T10:00:08;9.65;;;2.67;;
9522;SDS011;63165;43.016;25.784;2023-08-01T10:02:36;14.55;;;2.90;;
9522;SDS011;63165;43.016;25.784;2023-08-01T10:05:05;4.97;;;2.28;;
9522;SDS011;63165;43.016;25.784;2023-08-01T10:07:34;4.38;;;2.03;;
9522;SDS011;63165;43.016;25.784;2023-08-01T10:10:07;5.93;;;2.33;;
9522;SDS011;63165;43.016;25.784;2023-08-01T10:12:35;7.35;;;2.47;;
9522;SDS011;63165;43.016;25.784;2023-08-01T10:15:05;7.43;;;2.20;;
9522;SDS011;63165;43.016;25.784;2023-08-01T10:17:33;35.65;;;3.67;;
9522;SDS011;63165;43.016;25.784;2023-08-01T10:20:02;5.82;;;2.30;;
9522;SDS011;63165;43.016;25.784;2023-08-01T10:22:30;8.15;;;2.38;;
9522;SDS011;63165;43.016;25.784;2023-08-01T10:24:59;5.05;;;2.20;;
9522;SDS011;63165;43.016;25.784;2023-08-01T10:27:28;14.23;;;2.67;;
9522;SDS011;63165;43.016;25.784;2023-08-01T10:29:56;6.68;;;2.30;;
9522;SDS011;63165;43.016;25.784;2023-08-01T10:32:27;5.85;;;1.95;;
9522;SDS011;63165;43.016;25.784;2023-08-01T10:34:57;8.57;;;2.20;;
9522;SDS011;63165;43.016;25.784;2023-08-01T10:37:25;4.13;;;2.05;;
9522;SDS011;63165;43.016;25.784;2023-08-01T10:39:58;4.88;;;2.10;;
9522;SDS011;63165;43.016;25.784;2023-08-01T10:42:38;7.40;;;2.03;;
9522;SDS011;63165;43.016;25.784;2023-08-01T10:45:07;4.25;;;1.75;;
9522;SDS011;63165;43.016;25.784;2023-08-01T10:47:46;6.07;;;1.77;;
9522;SDS011;63165;43.016;25.784;2023-08-01T10:50:14;6.20;;;1.83;;
9522;SDS011;63165;43.016;25.784;2023-08-01T10:52:42;4.82;;;2.30;;
9522;SDS011;63165;43.016;25.784;2023-08-01T10:55:11;6.45;;;1.98;;
9522;SDS011;63165;43.016;25.784;2023-08-01T10:57:47;3.70;;;1.90;;
9522;SDS011;63165;43.016;25.784;2023-08-01T11:00:16;4.22;;;1.83;;
9522;SDS011;63165;43.016;25.784;2023-08-01T11:02:48;4.00;;;1.98;;
9522;SDS011;63165;43.016;25.784;2023-08-01T11:05:17;6.07;;;1.83;;
9522;SDS011;63165;43.016;25.784;2023-08-01T11:07:53;5.05;;;1.90;;
9522;SDS011;63165;43.016;25.784;2023-08-01T11:10:23;8.60;;;2.35;;
9522;SDS011;63165;43.016;25.784;2023-08-01T11:12:53;3.47;;;1.70;;
9522;SDS011;63165;43.016;25.784;2023-08-01T11:15:20;4.18;;;1.98;;
9522;SDS011;63165;43.016;25.784;2023-08-01T11:17:48;8.07;;;1.75;;
9522;SDS011;63165;43.016;25.784;2023-08-01T11:20:17;5.43;;;2.13;;
9522;SDS011;63165;43.016;25.784;2023-08-01T11:22:49;5.28;;;2.08;;
9522;SDS011;63165;43.016;25.784;2023-08-01T11:25:18;4.00;;;2.08;;
9522;SDS011;63165;43.016;25.784;2023-08-01T11:27:46;4.30;;;1.85;;
9522;SDS011;63165;43.016;25.784;2023-08-01T11:30:15;5.13;;;2.00;;
9522;SDS011;63165;43.016;25.784;2023-08-01T11:32:42;5.13;;;2.22;;
9522;SDS011;63165;43.016;25.784;2023-08-01T11:35:16;6.82;;;1.85;;
9522;SDS011;63165;43.016;25.784;2023-08-01T11:37:44;4.75;;;2.00;;
9522;SDS011;63165;43.016;25.784;2023-08-01T11:40:11;20.50;;;2.42;;
9522;SDS011;63165;43.016;25.784;2023-08-01T11:42:39;5.22;;;2.10;;
9522;SDS011;63165;43.016;25.784;2023-08-01T11:45:09;5.43;;;2.03;;
9522;SDS011;63165;43.016;25.784;2023-08-01T11:47:40;6.15;;;1.77;;
9522;SDS011;63165;43.016;25.784;2023-08-01T11:50:11;4.28;;;1.95;;
9522;SDS011;63165;43.016;25.784;2023-08-01T11:52:39;4.00;;;1.70;;
9522;SDS011;63165;43.016;25.784;2023-08-01T11:55:06;8.13;;;2.20;;
9522;SDS011;63165;43.016;25.784;2023-08-01T11:57:34;7.50;;;2.28;;
9522;SDS011;63165;43.016;25.784;2023-08-01T12:00:02;6.15;;;2.13;;
9522;SDS011;63165;43.016;25.784;2023-08-01T12:02:29;11.43;;;2.38;;
9522;SDS011;63165;43.016;25.784;2023-08-01T12:04:57;7.97;;;2.03;;
9522;SDS011;63165;43.016;25.784;2023-08-01T12:07:24;5.50;;;2.30;;
9522;SDS011;63165;43.016;25.784;2023-08-01T12:09:54;6.13;;;2.00;;
9522;SDS011;63165;43.016;25.784;2023-08-01T12:12:23;5.68;;;1.98;;
9522;SDS011;63165;43.016;25.784;2023-08-01T12:14:50;4.32;;;2.00;;
9522;SDS011;63165;43.016;25.784;2023-08-01T12:17:18;4.90;;;2.10;;
9522;SDS011;63165;43.016;25.784;2023-08-01T12:19:45;5.85;;;2.15;;
9522;SDS011;63165;43.016;25.784;2023-08-01T12:22:14;3.92;;;2.05;;
9522;SDS011;63165;43.016;25.784;2023-08-01T12:24:41;6.05;;;2.30;;
9522;SDS011;63165;43.016;25.784;2023-08-01T12:27:09;4.28;;;2.25;;
9522;SDS011;63165;43.016;25.784;2023-08-01T12:29:36;13.73;;;2.60;;
9522;SDS011;63165;43.016;25.784;2023-08-01T12:32:04;6.15;;;1.77;;
9522;SDS011;63165;43.016;25.784;2023-08-01T12:34:32;3.72;;;2.13;;
9522;SDS011;63165;43.016;25.784;2023-08-01T12:36:59;4.25;;;1.98;;
9522;SDS011;63165;43.016;25.784;2023-08-01T12:39:27;3.22;;;1.75;;
9522;SDS011;63165;43.016;25.784;2023-08-01T12:41:54;6.55;;;2.00;;
9522;SDS011;63165;43.016;25.784;2023-08-01T12:44:22;12.05;;;2.15;;
9522;SDS011;63165;43.016;25.784;2023-08-01T12:46:49;9.88;;;2.28;;
9522;SDS011;63165;43.016;25.784;2023-08-01T12:49:17;4.47;;;2.22;;
9522;SDS011;63165;43.016;25.784;2023-08-01T12:51:45;5.20;;;2.28;;
9522;SDS011;63165;43.016;25.784;2023-08-01T12:54:12;8.30;;;2.38;;
9522;SDS011;63165;43.016;25.784;2023-08-01T12:56:41;4.38;;;2.03;;
9522;SDS011;63165;43.016;25.784;2023-08-01T12:59:08;5.95;;;2.47;;
9522;SDS011;63165;43.016;25.784;2023-08-01T13:01:35;4.25;;;2.00;;
9522;SDS011;63165;43.016;25.784;2023-08-01T13:04:03;2.78;;;1.65;;
9522;SDS011;63165;43.016;25.784;2023-08-01T13:06:31;4.15;;;2.05;;
9522;SDS011;63165;43.016;25.784;2023-08-01T13:08:58;4.95;;;2.40;;
9522;SDS011;63165;43.016;25.784;2023-08-01T13:11:25;4.40;;;2.05;;
9522;SDS011;63165;43.016;25.784;2023-08-01T13:13:54;8.40;;;2.20;;
9522;SDS011;63165;43.016;25.784;2023-08-01T13:16:22;4.15;;;2.00;;
9522;SDS011;63165;43.016;25.784;2023-08-01T13:18:49;5.50;;;2.22;;
9522;SDS011;63165;43.016;25.784;2023-08-01T13:21:16;6.07;;;2.13;;
9522;SDS011;63165;43.016;25.784;2023-08-01T13:23:45;5.22;;;2.33;;
9522;SDS011;63165;43.016;25.784;2023-08-01T13:26:12;6.95;;;2.28;;
9522;SDS011;63165;43.016;25.784;2023-08-01T13:28:39;7.93;;;1.38;;
9522;SDS011;63165;43.016;25.784;2023-08-01T13:31:08;5.35;;;2.58;;
9522;SDS011;63165;43.016;25.784;2023-08-01T13:33:35;4.57;;;2.17;;
9522;SDS011;63165;43.016;25.784;2023-08-01T13:36:02;5.50;;;2.17;;
9522;SDS011;63165;43.016;25.784;2023-08-01T13:38:29;4.55;;;2.25;;
9522;SDS011;63165;43.016;25.784;2023-08-01T13:40:58;5.20;;;2.05;;
9522;SDS011;63165;43.016;25.784;2023-08-01T13:43:26;5.97;;;2.00;;
9522;SDS011;63165;43.016;25.784;2023-08-01T13:45:53;9.30;;;2.42;;
9522;SDS011;63165;43.016;25.784;2023-08-01T13:48:22;7.68;;;1.98;;
9522;SDS011;63165;43.016;25.784;2023-08-01T13:50:50;18.20;;;3.30;;
9522;SDS011;63165;43.016;25.784;2023-08-01T13:53:17;6.75;;;2.15;;
9522;SDS011;63165;43.016;25.784;2023-08-01T13:55:45;3.67;;;2.17;;
9522;SDS011;63165;43.016;25.784;2023-08-01T13:58:12;3.67;;;2.00;;
9522;SDS011;63165;43.016;25.784;2023-08-01T14:00:39;5.53;;;2.30;;
9522;SDS011;63165;43.016;25.784;2023-08-01T14:03:07;5.93;;;2.05;;
9522;SDS011;63165;43.016;25.784;2023-08-01T14:05:35;4.07;;;2.00;;
9522;SDS011;63165;43.016;25.784;2023-08-01T14:08:03;10.30;;;2.60;;
9522;SDS011;63165;43.016;25.784;2023-08-01T14:10:30;5.68;;;2.08;;
9522;SDS011;63165;43.016;25.784;2023-08-01T14:12:58;4.90;;;2.00;;
9522;SDS011;63165;43.016;25.784;2023-08-01T14:15:25;7.50;;;2.20;;
9522;SDS011;63165;43.016;25.784;2023-08-01T14:17:52;7.22;;;2.10;;
9522;SDS011;63165;43.016;25.784;2023-08-01T14:20:19;3.28;;;2.05;;
9522;SDS011;63165;43.016;25.784;2023-08-01T14:22:48;7.22;;;2.33;;
9522;SDS011;63165;43.016;25.784;2023-08-01T14:25:15;4.88;;;2.03;;
9522;SDS011;63165;43.016;25.784;2023-08-01T14:27:42;4.93;;;2.10;;
9522;SDS011;63165;43.016;25.784;2023-08-01T14:30:10;3.80;;;2.30;;
9522;SDS011;63165;43.016;25.784;2023-08-01T14:32:37;5.03;;;2.20;;
9522;SDS011;63165;43.016;25.784;2023-08-01T14:35:05;4.60;;;2.20;;
9522;SDS011;63165;43.016;25.784;2023-08-01T14:37:33;5.38;;;2.30;;
9522;SDS011;63165;43.016;25.784;2023-08-01T14:40:02;3.75;;;2.22;;
9522;SDS011;63165;43.016;25.784;2023-08-01T14:42:30;5.20;;;2.20;;